createdAt,value
2023-05-23T00:00:33.444Z,18.51
2023-05-23T00:03:03.536Z,18.41
2023-05-23T00:05:31.553Z,18.33
2023-05-23T00:07:59.355Z,18.35
2023-05-23T00:10:27.640Z,18.34
2023-05-23T00:12:55.454Z,18.27
2023-05-23T00:15:23.164Z,18.34
2023-05-23T00:17:53.141Z,18.31
2023-05-23T00:20:21.229Z,18.21
2023-05-23T00:22:49.234Z,18.17
2023-05-23T00:25:16.937Z,18.20
2023-05-23T00:27:44.626Z,18.15
2023-05-23T00:30:13.300Z,18.11
2023-05-23T00:32:41.316Z,18.09
2023-05-23T00:35:11.422Z,18.03
2023-05-23T00:37:40.514Z,18.10
2023-05-23T00:40:10.160Z,18.01
2023-05-23T00:42:38.121Z,17.97
2023-05-23T00:45:12.350Z,18.01
2023-05-23T00:47:41.782Z,17.99
2023-05-23T00:50:20.098Z,17.97
2023-05-23T00:52:52.843Z,18.01
2023-05-23T00:55:22.333Z,17.95
2023-05-23T00:57:54.998Z,17.90
2023-05-23T01:00:24.985Z,17.85
2023-05-23T01:02:54.762Z,17.85
2023-05-23T01:05:25.455Z,17.80
2023-05-23T01:07:55.369Z,17.88
2023-05-23T01:10:28.245Z,17.87
2023-05-23T01:13:05.976Z,17.85
2023-05-23T01:15:40.832Z,18.00
2023-05-23T01:18:15.122Z,17.95
2023-05-23T01:20:50.344Z,17.92
2023-05-23T01:23:55.795Z,17.87
2023-05-23T01:26:42.274Z,18.11
2023-05-23T01:29:15.709Z,18.06
2023-05-23T01:31:47.264Z,17.94
2023-05-23T01:34:17.013Z,17.87
2023-05-23T01:36:45.443Z,17.88
2023-05-23T01:39:20.118Z,17.84
2023-05-23T01:41:51.838Z,17.88
2023-05-23T01:44:22.031Z,17.85
2023-05-23T01:46:50.100Z,17.84
2023-05-23T01:49:19.538Z,17.88
2023-05-23T01:51:47.860Z,17.85
2023-05-23T01:54:19.850Z,17.75
2023-05-23T01:56:49.170Z,17.70
2023-05-23T01:59:17.922Z,17.66
2023-05-23T02:01:47.592Z,17.69
2023-05-23T02:04:16.264Z,17.63
2023-05-23T02:06:44.077Z,17.63
2023-05-23T02:09:16.476Z,17.53
2023-05-23T02:11:46.691Z,17.59
2023-05-23T02:14:14.814Z,17.62
2023-05-23T02:16:43.386Z,17.60
2023-05-23T02:19:13.009Z,17.67
2023-05-23T02:21:41.169Z,17.55
2023-05-23T02:24:09.048Z,17.57
2023-05-23T02:26:37.219Z,17.64
2023-05-23T02:29:05.155Z,17.70
2023-05-23T02:31:33.165Z,17.66
2023-05-23T02:34:01.080Z,17.69
2023-05-23T02:36:30.160Z,17.71
2023-05-23T02:38:58.811Z,17.76
2023-05-23T02:41:27.408Z,17.70
2023-05-23T02:43:55.789Z,17.64
2023-05-23T02:46:23.834Z,17.77
2023-05-23T02:48:51.857Z,17.73
2023-05-23T02:51:20.029Z,17.66
2023-05-23T02:53:49.469Z,17.66
2023-05-23T02:56:17.680Z,17.57
2023-05-23T02:58:45.593Z,17.74
2023-05-23T03:01:13.708Z,17.61
2023-05-23T03:03:42.240Z,17.39
2023-05-23T03:06:14.318Z,17.57
2023-05-23T03:08:43.266Z,17.46
2023-05-23T03:11:13.346Z,17.25
2023-05-23T03:13:41.184Z,17.23
2023-05-23T03:16:09.264Z,17.20
2023-05-23T03:18:39.175Z,17.14
2023-05-23T03:21:07.397Z,17.19
2023-05-23T03:23:35.094Z,17.19
2023-05-23T03:26:06.492Z,17.15
2023-05-23T03:28:36.709Z,17.03
2023-05-23T03:31:04.928Z,17.06
2023-05-23T03:33:33.366Z,16.94
2023-05-23T03:36:01.326Z,16.99
2023-05-23T03:38:29.456Z,16.88
2023-05-23T03:40:57.801Z,16.87
2023-05-23T03:43:26.459Z,16.78
2023-05-23T03:45:56.414Z,16.83
2023-05-23T03:48:24.489Z,16.87
2023-05-23T03:50:52.688Z,16.84
2023-05-23T03:53:20.966Z,17.11
2023-05-23T03:55:48.969Z,16.91
2023-05-23T03:58:16.776Z,16.87
2023-05-23T04:00:48.201Z,16.86
2023-05-23T04:03:18.720Z,16.87
2023-05-23T04:05:48.851Z,16.95
2023-05-23T04:08:17.410Z,16.83
2023-05-23T04:10:46.027Z,16.79
2023-05-23T04:13:15.358Z,16.76
2023-05-23T04:15:45.418Z,16.70
2023-05-23T04:18:15.009Z,16.63
2023-05-23T04:20:45.923Z,16.87
2023-05-23T04:23:14.076Z,16.74
2023-05-23T04:25:45.445Z,16.65
2023-05-23T04:28:20.589Z,16.83
2023-05-23T04:30:49.587Z,16.71
2023-05-23T04:33:21.656Z,16.78
2023-05-23T04:35:51.292Z,16.64
2023-05-23T04:38:19.849Z,16.63
2023-05-23T04:40:49.361Z,16.77
2023-05-23T04:43:46.282Z,16.65
2023-05-23T04:46:26.846Z,16.65
2023-05-23T04:49:11.493Z,16.87
2023-05-23T04:51:41.451Z,16.68
2023-05-23T04:54:19.240Z,16.58
2023-05-23T04:56:47.980Z,16.60
2023-05-23T04:59:19.176Z,16.54
2023-05-23T05:01:47.553Z,16.62
2023-05-23T05:04:15.739Z,16.62
2023-05-23T05:06:48.061Z,16.67
2023-05-23T05:09:16.261Z,16.60
2023-05-23T05:11:44.885Z,16.65
2023-05-23T05:14:13.025Z,16.71
2023-05-23T05:16:42.701Z,16.69
2023-05-23T05:19:11.974Z,16.99
2023-05-23T05:21:39.793Z,17.40
2023-05-23T05:24:09.734Z,16.97
2023-05-23T05:26:38.521Z,16.76
2023-05-23T05:29:07.628Z,16.70
2023-05-23T05:31:38.186Z,16.80
2023-05-23T05:34:06.530Z,16.81
2023-05-23T05:36:34.367Z,16.84
2023-05-23T05:39:04.145Z,16.91
2023-05-23T05:41:33.456Z,16.87
2023-05-23T05:44:01.478Z,16.87
2023-05-23T05:46:30.184Z,16.85
2023-05-23T05:48:58.060Z,17.02
2023-05-23T05:51:26.402Z,16.98
2023-05-23T05:53:54.430Z,16.97
2023-05-23T05:56:23.310Z,17.06
2023-05-23T05:58:52.683Z,16.92
2023-05-23T06:01:21.003Z,17.10
2023-05-23T06:03:49.229Z,17.11
2023-05-23T06:06:17.167Z,17.09
2023-05-23T06:08:45.733Z,17.22
2023-05-23T06:11:17.153Z,17.10
2023-05-23T06:13:45.118Z,16.99
2023-05-23T06:16:15.256Z,16.94
2023-05-23T06:18:44.553Z,17.12
2023-05-23T06:21:12.452Z,17.00
2023-05-23T06:23:40.442Z,17.01
2023-05-23T06:26:11.142Z,17.00
2023-05-23T06:28:40.162Z,17.02
2023-05-23T06:31:10.047Z,17.03
2023-05-23T06:33:39.403Z,17.02
2023-05-23T06:36:08.034Z,16.92
2023-05-23T06:38:36.617Z,17.01
2023-05-23T06:41:07.295Z,17.17
2023-05-23T06:43:36.937Z,17.20
2023-05-23T06:46:25.382Z,17.11
2023-05-23T06:49:06.607Z,17.11
2023-05-23T06:51:42.037Z,17.16
2023-05-23T06:54:11.461Z,17.16
2023-05-23T06:56:39.447Z,17.67
2023-05-23T06:59:07.710Z,17.76
2023-05-23T07:01:35.732Z,17.56
2023-05-23T07:04:05.475Z,17.27
2023-05-23T07:06:35.602Z,17.11
2023-05-23T07:09:05.196Z,17.27
2023-05-23T07:11:33.610Z,17.58
2023-05-23T07:14:03.048Z,17.67
2023-05-23T07:16:45.529Z,17.82
2023-05-23T07:19:15.006Z,17.99
2023-05-23T07:21:47.291Z,17.75
2023-05-23T07:24:18.112Z,17.75
2023-05-23T07:26:49.003Z,17.81
2023-05-23T07:29:16.879Z,17.31
2023-05-23T07:31:48.010Z,17.27
2023-05-23T07:34:17.510Z,17.26
2023-05-23T07:36:54.258Z,17.58
2023-05-23T07:39:24.398Z,17.50
2023-05-23T07:41:55.051Z,17.37
2023-05-23T07:44:27.881Z,17.28
2023-05-23T07:47:02.340Z,17.48
2023-05-23T07:49:54.648Z,17.35
2023-05-23T07:52:24.177Z,17.36
2023-05-23T07:54:52.198Z,17.53
2023-05-23T07:57:19.995Z,17.44
2023-05-23T07:59:48.209Z,17.49
2023-05-23T08:02:16.915Z,17.42
2023-05-23T08:04:47.960Z,17.49
2023-05-23T08:07:19.267Z,17.61
2023-05-23T08:09:52.082Z,17.52
2023-05-23T08:12:21.964Z,17.60
2023-05-23T08:14:55.377Z,17.80
2023-05-23T08:17:25.944Z,17.89
2023-05-23T08:19:55.917Z,18.14
2023-05-23T08:22:24.198Z,18.30
2023-05-23T08:24:53.104Z,18.60
2023-05-23T08:27:22.353Z,18.86
2023-05-23T08:29:55.859Z,18.68
2023-05-23T08:32:23.752Z,18.96
2023-05-23T08:34:51.617Z,18.84
2023-05-23T08:37:21.685Z,18.72
2023-05-23T08:39:49.530Z,18.49
2023-05-23T08:42:37.756Z,18.46
2023-05-23T08:45:10.212Z,18.13
2023-05-23T08:47:39.247Z,18.17
2023-05-23T08:50:10.443Z,18.05
2023-05-23T08:52:46.079Z,18.17
2023-05-23T08:55:14.428Z,18.13
2023-05-23T08:57:43.833Z,18.01
2023-05-23T09:00:29.309Z,18.03
2023-05-23T09:02:58.638Z,17.98
2023-05-23T09:05:46.990Z,18.12
2023-05-23T09:08:16.626Z,18.45
2023-05-23T09:10:45.606Z,18.97
2023-05-23T09:13:17.898Z,19.34
2023-05-23T09:16:03.871Z,20.35
2023-05-23T09:18:39.580Z,20.27
2023-05-23T09:21:09.086Z,19.68
2023-05-23T09:23:42.524Z,19.03
2023-05-23T09:26:13.347Z,18.79
2023-05-23T09:28:44.337Z,18.75
2023-05-23T09:31:12.976Z,18.41
2023-05-23T09:33:44.060Z,18.38
2023-05-23T09:36:11.800Z,18.33
2023-05-23T09:38:42.651Z,18.47
2023-05-23T09:41:12.323Z,18.77
2023-05-23T09:43:41.002Z,18.81
2023-05-23T09:46:10.841Z,18.81
2023-05-23T09:48:39.039Z,18.79
2023-05-23T09:51:08.780Z,18.61
2023-05-23T09:53:36.874Z,18.89
2023-05-23T09:56:07.349Z,18.45
2023-05-23T09:58:37.064Z,18.39
2023-05-23T10:01:10.284Z,18.65
2023-05-23T10:03:45.905Z,18.80
2023-05-23T10:06:20.395Z,19.05
2023-05-23T10:08:55.902Z,19.25
2023-05-23T10:12:20.475Z,19.18
2023-05-23T10:14:56.361Z,18.95
2023-05-23T10:17:34.026Z,18.72
2023-05-23T10:20:08.671Z,18.47
2023-05-23T10:22:37.318Z,18.50
2023-05-23T10:25:07.133Z,18.54
2023-05-23T10:27:36.728Z,18.51
2023-05-23T10:30:06.541Z,18.88
2023-05-23T10:32:35.834Z,18.97
2023-05-23T10:35:11.699Z,19.28
2023-05-23T10:37:50.303Z,19.26
2023-05-23T10:40:29.202Z,19.18
2023-05-23T10:43:04.288Z,19.32
2023-05-23T10:45:42.467Z,19.27
2023-05-23T10:48:22.680Z,20.04
2023-05-23T10:51:04.829Z,21.72
2023-05-23T10:53:33.598Z,22.05
2023-05-23T10:56:01.502Z,21.72
2023-05-23T10:58:32.316Z,22.22
2023-05-23T11:01:03.161Z,20.93
2023-05-23T11:03:38.071Z,20.85
2023-05-23T11:06:07.041Z,21.18
2023-05-23T11:08:48.280Z,20.80
2023-05-23T11:11:17.360Z,20.71
2023-05-23T11:14:02.599Z,20.54
2023-05-23T11:16:33.501Z,20.38
2023-05-23T11:19:26.014Z,20.16
2023-05-23T11:21:56.936Z,19.91
2023-05-23T11:24:24.896Z,20.58
2023-05-23T11:26:54.658Z,20.89
2023-05-23T11:29:27.614Z,20.59
2023-05-23T11:31:56.940Z,21.47
2023-05-23T11:34:27.309Z,21.29
2023-05-23T11:36:56.687Z,20.77
2023-05-23T11:39:24.817Z,20.75
2023-05-23T11:42:00.902Z,20.50
2023-05-23T11:44:30.605Z,20.34
2023-05-23T11:47:02.728Z,20.30
2023-05-23T11:49:32.386Z,20.20
2023-05-23T11:52:00.933Z,20.28
2023-05-23T11:54:30.183Z,20.20
2023-05-23T11:56:59.000Z,20.04
2023-05-23T11:59:28.638Z,20.13
2023-05-23T12:01:58.067Z,20.51
2023-05-23T12:04:27.757Z,21.18
2023-05-23T12:06:55.692Z,22.08
2023-05-23T12:09:24.009Z,21.87
2023-05-23T12:11:52.519Z,20.81
2023-05-23T12:14:20.727Z,20.76
2023-05-23T12:16:48.909Z,20.86
2023-05-23T12:19:19.336Z,21.27
2023-05-23T12:21:48.482Z,21.00
2023-05-23T12:24:17.834Z,20.84
2023-05-23T12:26:55.576Z,20.76
2023-05-23T12:29:32.756Z,20.52
2023-05-23T12:32:03.437Z,21.12
2023-05-23T12:34:32.797Z,21.08
2023-05-23T12:37:18.129Z,20.75
2023-05-23T12:39:47.215Z,20.96
2023-05-23T12:42:15.121Z,20.84
2023-05-23T12:44:43.586Z,20.65
2023-05-23T12:47:13.343Z,20.77
2023-05-23T12:49:44.842Z,20.84
2023-05-23T12:52:12.756Z,20.70
2023-05-23T12:54:40.755Z,20.74
2023-05-23T12:57:08.512Z,20.42
2023-05-23T12:59:36.795Z,20.99
2023-05-23T13:02:04.787Z,21.10
2023-05-23T13:04:32.795Z,21.19
2023-05-23T13:07:02.196Z,20.76
2023-05-23T13:09:30.911Z,20.58
2023-05-23T13:11:59.027Z,20.66
2023-05-23T13:14:27.259Z,20.49
2023-05-23T13:16:55.490Z,20.22
2023-05-23T13:19:23.802Z,20.19
2023-05-23T13:21:51.835Z,20.38
2023-05-23T13:24:21.061Z,20.60
2023-05-23T13:26:48.904Z,21.28
2023-05-23T13:29:17.248Z,21.78
2023-05-23T13:31:45.163Z,21.80
2023-05-23T13:34:13.357Z,21.42
2023-05-23T13:36:42.430Z,21.02
2023-05-23T13:39:10.626Z,20.65
2023-05-23T13:41:40.380Z,20.91
2023-05-23T13:44:08.450Z,20.73
2023-05-23T13:46:36.747Z,20.21
2023-05-23T13:49:04.535Z,19.95
2023-05-23T13:51:33.052Z,20.34
2023-05-23T13:54:01.605Z,20.41
2023-05-23T13:56:29.385Z,21.30
2023-05-23T13:58:58.817Z,21.41
2023-05-23T14:01:26.677Z,21.34
2023-05-23T14:03:54.441Z,21.29
2023-05-23T14:06:22.510Z,21.28
2023-05-23T14:08:51.238Z,20.79
2023-05-23T14:11:19.491Z,20.78
2023-05-23T14:13:47.641Z,20.68
2023-05-23T14:16:17.743Z,20.60
2023-05-23T14:18:45.942Z,20.73
2023-05-23T14:21:14.054Z,20.80
2023-05-23T14:23:41.993Z,20.92
2023-05-23T14:26:09.812Z,21.21
2023-05-23T14:28:37.582Z,21.08
2023-05-23T14:31:06.077Z,21.29
2023-05-23T14:33:35.204Z,21.85
2023-05-23T14:36:03.636Z,21.56
2023-05-23T14:38:31.426Z,21.70
2023-05-23T14:41:00.416Z,21.55
2023-05-23T14:43:29.294Z,21.51
2023-05-23T14:45:57.753Z,21.28
2023-05-23T14:48:25.493Z,21.08
2023-05-23T14:50:54.844Z,20.80
2023-05-23T14:53:23.985Z,20.79
2023-05-23T14:55:51.791Z,20.59
2023-05-23T14:58:19.941Z,20.28
2023-05-23T15:00:48.422Z,20.49
2023-05-23T15:03:18.050Z,20.60
2023-05-23T15:05:49.018Z,20.71
2023-05-23T15:08:19.444Z,20.82
2023-05-23T15:10:47.494Z,20.75
2023-05-23T15:13:15.523Z,20.69
2023-05-23T15:15:44.296Z,20.78
2023-05-23T15:18:21.409Z,20.20
2023-05-23T15:20:56.365Z,20.46
2023-05-23T15:23:26.597Z,20.28
2023-05-23T15:25:55.515Z,20.37
2023-05-23T15:28:24.131Z,20.01
2023-05-23T15:30:52.300Z,19.73
2023-05-23T15:33:20.235Z,19.76
2023-05-23T15:35:48.200Z,19.65
2023-05-23T15:38:17.792Z,19.58
2023-05-23T15:40:49.364Z,19.04
2023-05-23T15:43:17.435Z,18.88
2023-05-23T15:45:45.257Z,19.15
2023-05-23T15:48:14.242Z,19.16
2023-05-23T15:50:42.419Z,19.00
2023-05-23T15:53:10.503Z,18.89
2023-05-23T15:55:41.262Z,18.90
2023-05-23T15:58:12.000Z,18.90
2023-05-23T16:00:40.495Z,18.76
2023-05-23T16:03:08.717Z,18.58
2023-05-23T16:05:37.084Z,18.47
2023-05-23T16:08:05.239Z,18.62
2023-05-23T16:10:33.096Z,18.40
2023-05-23T16:13:01.110Z,18.91
2023-05-23T16:15:32.109Z,18.83
2023-05-23T16:17:59.931Z,18.82
2023-05-23T16:20:28.811Z,18.88
2023-05-23T16:22:57.267Z,18.77
2023-05-23T16:25:25.431Z,18.64
2023-05-23T16:27:54.932Z,18.66
2023-05-23T16:31:14.046Z,18.66
2023-05-23T16:33:43.513Z,18.93
2023-05-23T16:36:11.692Z,18.81
2023-05-23T16:38:40.049Z,18.89
2023-05-23T16:41:08.164Z,19.09
2023-05-23T16:43:36.497Z,19.08
2023-05-23T16:46:04.699Z,18.97
2023-05-23T16:48:32.853Z,18.92
2023-05-23T16:51:02.264Z,18.95
2023-05-23T16:53:30.374Z,18.72
2023-05-23T16:55:58.317Z,18.75
2023-05-23T16:58:26.484Z,18.79
2023-05-23T17:00:55.336Z,18.62
2023-05-23T17:03:23.717Z,18.53
2023-05-23T17:05:51.596Z,18.93
2023-05-23T17:08:21.585Z,18.84
2023-05-23T17:10:49.709Z,18.59
2023-05-23T17:13:17.662Z,18.52
2023-05-23T17:15:46.418Z,18.11
2023-05-23T17:18:14.214Z,18.15
2023-05-23T17:20:42.204Z,18.19
2023-05-23T17:23:12.593Z,18.14
2023-05-23T17:25:41.877Z,18.08
2023-05-23T17:28:11.959Z,18.20
2023-05-23T17:30:40.304Z,18.01
2023-05-23T17:33:08.691Z,17.75
2023-05-23T17:35:36.531Z,17.65
2023-05-23T17:38:04.495Z,17.70
2023-05-23T17:40:32.316Z,18.02
2023-05-23T17:43:01.530Z,17.99
2023-05-23T17:45:29.307Z,17.64
2023-05-23T17:47:58.857Z,17.47
2023-05-23T17:50:26.834Z,17.35
2023-05-23T17:52:54.682Z,17.46
2023-05-23T17:55:22.945Z,17.45
2023-05-23T17:57:51.639Z,17.52
2023-05-23T18:00:21.592Z,17.40
2023-05-23T18:02:51.115Z,17.14
2023-05-23T18:05:20.328Z,17.34
2023-05-23T18:07:48.509Z,17.33
2023-05-23T18:10:16.859Z,17.13
2023-05-23T18:12:44.573Z,16.95
2023-05-23T18:15:13.296Z,16.91
2023-05-23T18:17:42.577Z,16.98
2023-05-23T18:20:11.623Z,16.90
2023-05-23T18:22:41.273Z,16.84
2023-05-23T18:25:10.111Z,16.75
2023-05-23T18:27:38.397Z,16.63
2023-05-23T18:30:08.019Z,16.65
2023-05-23T18:32:35.822Z,16.61
2023-05-23T18:35:05.794Z,16.57
2023-05-23T18:37:34.103Z,16.60
2023-05-23T18:40:02.821Z,16.63
2023-05-23T18:42:32.036Z,16.52
2023-05-23T18:45:00.320Z,16.38
2023-05-23T18:47:28.364Z,16.41
2023-05-23T18:49:56.414Z,16.23
2023-05-23T18:52:26.156Z,16.22
2023-05-23T18:54:54.970Z,16.21
2023-05-23T18:57:23.563Z,16.14
2023-05-23T18:59:52.266Z,15.94
2023-05-23T19:02:20.464Z,15.82
2023-05-23T19:04:48.332Z,15.68
2023-05-23T19:07:16.600Z,15.62
2023-05-23T19:09:46.947Z,15.66
2023-05-23T19:12:15.017Z,15.48
2023-05-23T19:14:43.281Z,15.80
2023-05-23T19:17:11.557Z,15.88
2023-05-23T19:19:39.414Z,15.56
2023-05-23T19:22:07.285Z,15.25
2023-05-23T19:24:35.168Z,15.22
2023-05-23T19:27:05.115Z,15.22
2023-05-23T19:29:33.614Z,15.00
2023-05-23T19:32:01.707Z,15.07
2023-05-23T19:34:29.489Z,15.06
2023-05-23T19:36:57.887Z,14.93
2023-05-23T19:39:26.491Z,15.02
2023-05-23T19:41:54.975Z,15.14
2023-05-23T19:44:24.405Z,15.08
2023-05-23T19:46:52.538Z,15.04
2023-05-23T19:49:20.910Z,15.33
2023-05-23T19:51:49.126Z,15.25
2023-05-23T19:54:17.227Z,15.07
2023-05-23T19:56:45.568Z,14.92
2023-05-23T19:59:13.711Z,14.97
2023-05-23T20:01:43.300Z,14.83
2023-05-23T20:04:12.797Z,14.62
2023-05-23T20:06:41.072Z,14.55
2023-05-23T20:09:09.963Z,14.49
2023-05-23T20:11:38.305Z,14.56
2023-05-23T20:14:06.095Z,14.44
2023-05-23T20:16:34.734Z,14.42
2023-05-23T20:19:04.071Z,14.40
2023-05-23T20:21:32.416Z,14.36
2023-05-23T20:24:00.520Z,14.45
2023-05-23T20:26:28.371Z,14.51
2023-05-23T20:28:56.109Z,14.45
2023-05-23T20:31:24.118Z,14.52
2023-05-23T20:33:52.501Z,14.43
2023-05-23T20:36:22.135Z,14.26
2023-05-23T20:38:50.386Z,14.22
2023-05-23T20:41:18.168Z,14.18
2023-05-23T20:43:47.011Z,14.16
2023-05-23T20:46:14.982Z,14.14
2023-05-23T20:48:43.174Z,14.18
2023-05-23T20:51:11.120Z,14.15
2023-05-23T20:53:41.889Z,14.01
2023-05-23T20:56:10.733Z,14.11
2023-05-23T20:58:38.807Z,13.96
2023-05-23T21:01:06.925Z,13.90
2023-05-23T21:03:35.043Z,13.78
2023-05-23T21:06:02.975Z,13.64
2023-05-23T21:08:33.071Z,13.67
2023-05-23T21:11:03.843Z,13.67
2023-05-23T21:13:31.633Z,13.70
2023-05-23T21:15:59.554Z,13.63
2023-05-23T21:18:27.404Z,13.47
2023-05-23T21:20:55.329Z,13.47
2023-05-23T21:23:23.171Z,13.16
2023-05-23T21:25:51.371Z,13.03
2023-05-23T21:28:21.134Z,13.11
2023-05-23T21:30:49.360Z,13.15
2023-05-23T21:33:17.745Z,12.95
2023-05-23T21:35:46.167Z,12.99
2023-05-23T21:38:14.410Z,13.36
2023-05-23T21:40:43.525Z,13.28
2023-05-23T21:43:11.505Z,13.26
2023-05-23T21:45:40.637Z,13.16
2023-05-23T21:48:09.168Z,13.26
2023-05-23T21:50:38.407Z,13.26
2023-05-23T21:53:06.321Z,13.29
2023-05-23T21:55:34.461Z,13.21
2023-05-23T21:58:02.571Z,13.25
2023-05-23T22:00:31.476Z,13.24
2023-05-23T22:03:00.614Z,13.28
2023-05-23T22:05:28.686Z,13.19
2023-05-23T22:07:56.721Z,13.15
2023-05-23T22:10:24.776Z,13.29
2023-05-23T22:12:53.257Z,13.45
2023-05-23T22:15:21.351Z,13.31
2023-05-23T22:17:49.347Z,13.30
2023-05-23T22:20:20.485Z,13.19
2023-05-23T22:22:48.414Z,13.20
2023-05-23T22:25:17.025Z,13.23
2023-05-23T22:27:44.861Z,13.08
2023-05-23T22:30:13.688Z,13.19
2023-05-23T22:32:41.494Z,13.20
2023-05-23T22:35:12.734Z,13.17
2023-05-23T22:37:42.016Z,12.93
2023-05-23T22:40:11.177Z,12.80
2023-05-23T22:42:40.176Z,12.54
2023-05-23T22:45:09.100Z,12.58
2023-05-23T22:47:37.325Z,12.70
2023-05-23T22:50:05.793Z,12.69
2023-05-23T22:52:34.516Z,12.45
2023-05-23T22:55:05.679Z,12.39
2023-05-23T22:57:35.096Z,12.27
2023-05-23T23:00:03.773Z,12.22
2023-05-23T23:02:32.131Z,12.32
2023-05-23T23:05:01.584Z,12.44
2023-05-23T23:07:29.640Z,12.49
2023-05-23T23:09:57.781Z,12.65
2023-05-23T23:12:27.114Z,12.48
2023-05-23T23:14:54.828Z,12.50
2023-05-23T23:17:23.357Z,12.41
2023-05-23T23:19:51.677Z,12.36
2023-05-23T23:22:19.645Z,12.39
2023-05-23T23:24:48.730Z,12.11
2023-05-23T23:27:16.847Z,12.06
2023-05-23T23:29:46.425Z,12.05
2023-05-23T23:32:14.218Z,12.17
2023-05-23T23:34:42.009Z,12.24
2023-05-23T23:37:09.747Z,12.24
2023-05-23T23:39:37.488Z,12.08
2023-05-23T23:42:07.188Z,12.08
2023-05-23T23:44:35.754Z,11.92
2023-05-23T23:47:08.977Z,11.90
2023-05-23T23:49:39.981Z,12.14
2023-05-23T23:52:10.145Z,11.93
2023-05-23T23:54:40.373Z,11.74
2023-05-23T23:57:14.697Z,11.58
2023-05-23T23:59:44.150Z,11.69
